• Join FlightAware (Why Join?)
  • Login
  • US Flag 
02:47AM EDT


 

Airport Tracker/Info


-or-


 

Live Flight TrackerFlight Track Log ✈ EJM19 ✈ 26-Jun-2013 ✈ SKCL / CLO - KTEB

Flight Track Log - Related Links

Times and Time Zones

All times are in EDT time to prevent confusion due to time zone crossing. See the EJM19 flight status page for this flight to view local times or setup timezone preferences in your user account.

Time Position Orientation Groundspeed Altitude Reporting Facility
EDT Latitude Longitude Course Direction KTS MPH feet Rate Location/Type
04:02PM 22.7594 -78.6497 North 426 490 43,000  Level Miami Center
04:03PM 22.8758 -78.6964 340° North 433 498 43,000  Level Miami Center
04:04PM 22.9906 -78.7275 346° North 427 491 43,000  Level Miami Center
04:05PM 30.4413 -74.8620 North  Level Estimated
04:05PM 23.1089 -78.7767 339° North 440 506 43,000  Level Miami Center
04:06PM 30.5567 -74.8541 North  Level Estimated
04:06PM 23.2214 -78.8078 346° North 426 490 43,000  Level Miami Center
04:07PM 30.6721 -74.8463 North  Level Estimated
04:07PM 23.3336 -78.8478 342° North 428 493 43,000  Level Miami Center
04:08PM 30.7875 -74.8384 North  Level Estimated
04:08PM 23.4461 -78.8814 345° North 416 479 43,000  Level Miami Center
04:09PM 23.5603 -78.9239 341° North 421 484 43,000  Level Miami Center
04:10PM 23.6747 -78.9619 343° North 427 491 43,000  Level Miami Center
04:11PM 23.7850 -78.9978 343° North 416 479 43,000  Level Miami Center
04:12PM 23.9014 -79.0386 342° North 421 484 43,000  Level Miami Center
04:13PM 24.0158 -79.0722 345° North 427 491 43,000  Level Miami Center
04:14PM 24.1408 -79.0906 352° North 420 483 43,000  Level Miami Center
04:15PM 24.2622 -79.0903 360° North 415 478 43,000  Level Miami Center
04:16PM 24.3833 -79.0903 360° North 420 483 43,000  Level Miami Center
04:17PM 24.4942 -79.0808 North 418 481 43,000  Level Miami Center
04:18PM 24.6156 -79.0761 North 419 482 43,000  Level Miami Center
04:19PM 24.7347 -79.0692 North 420 483 43,000  Level Miami Center
04:20PM 24.8517 -79.0642 North 425 489 43,000  Level Miami Center
04:21PM 24.9708 -79.0594 North 419 482 43,000  Level Miami Center
04:22PM 25.0922 -79.0525 North 425 489 43,000  Level Miami Center
04:23PM 25.2094 -79.0478 North 425 489 43,000  Level Miami Center
04:24PM 25.3264 -79.0406 North 420 483 43,000 120 Level Miami Center
04:25PM 25.4436 -79.0358 North 420 483 43,300 360 Climbing Miami Center
04:26PM 25.5564 -79.0308 North 415 478 43,800 480 Climbing Miami Center
04:27PM 25.6714 -79.0239 North 410 472 44,300 480 Climbing Miami Center
04:28PM 25.7822 -79.0189 North 402 463 44,800 300 Climbing Miami Center
04:29PM 25.8953 -79.0161 North 402 463 45,000 60 Climbing Miami Center
04:30PM 26.0081 -79.0089 North 402 463 45,000  Level Miami Center
04:31PM 26.1253 -79.0042 North 407 468 45,000  Level Miami Center
04:32PM 26.2381 -78.9992 North 407 468 45,000  Level Miami Center
04:33PM 26.3550 -78.9944 North 407 468 45,000  Level Miami Center
04:34PM 26.4722 -78.9894 North 412 474 45,000  Level Miami Center
04:35PM 26.5850 -78.9822 North 412 474 45,000  Level Miami Center
04:36PM 26.7000 -78.9797 North 407 468 45,000  Level Miami Center
04:37PM 26.8150 -78.9725 North 407 468 45,000  Level Miami Center
04:38PM 26.9319 -78.9700 North 407 468 45,000  Level Miami Center
04:39PM 27.0511 -78.9650 North 407 468 45,000  Level Miami Center
04:40PM 27.1536 -78.9578 North 412 474 45,000  Level Miami Center
04:41PM 27.2831 -78.9531 North 417 480 45,000  Level Miami Center
04:42PM 27.4003 -78.9458 North 424 488 45,000  Level Miami Center
04:44PM 27.6197 -78.9192 North 423 487 45,000  Level Miami Center
04:45PM 27.7558 -78.9006 North 429 494 45,000  Level Miami Center
04:46PM 27.8731 -78.8839 North 430 495 45,000  Level Miami Center
04:47PM 27.9775 -78.8669 North 422 486 45,000  Level Miami Center
04:48PM 28.0969 -78.8525 North 422 486 45,000  Level Miami Center
04:49PM 28.2139 -78.8358 North 427 491 45,000  Level Miami Center
04:50PM 28.3353 -78.8167 North 427 491 45,000  Level Miami Center
04:51PM 28.4544 -78.7997 North 427 491 45,000  Level Miami Center
04:52PM 28.5717 -78.7853 North 427 491 45,000  Level Miami Center
04:53PM 28.6950 -78.7661 North 427 491 45,000 -60 Level Miami Center
04:54PM 28.8119 -78.7492 North 427 491 44,900  Descending Miami Center
04:55PM 28.9311 -78.7322 North 427 491 45,000  Climbing Miami Center
04:56PM 29.0544 -78.7178 North 432 497 45,000  Level Miami Center
04:57PM 29.1736 -78.6983 North 432 497 45,000  Level Miami Center
04:58PM 29.2928 -78.6814 North 427 491 45,000  Level Miami Center
04:59PM 29.4139 -78.6667 North 433 498 45,000  Level Miami Center
05:00PM 29.5331 -78.6472 North 433 498 45,000  Level Miami Center
05:02PM 29.7733 -78.6169 North 424 488 45,000  Level Jacksonville Center
05:03PM 29.8872 -78.5928 10° North 433 498 45,000  Level Jacksonville Center
05:04PM 30.0075 -78.5731 North 429 494 45,000  Level Jacksonville Center
05:05PM 30.1303 -78.5628 North 432 497 45,000  Level Jacksonville Center
05:06PM 30.2319 -78.5461 North 416 479 45,000  Level Jacksonville Center
05:07PM 30.3506 -78.5311 North 423 487 45,000  Level Jacksonville Center
05:08PM 30.4708 -78.5111 North 423 487 45,000  Level Jacksonville Center
05:09PM 30.5892 -78.4914 North 428 493 45,000  Level Jacksonville Center
05:10PM 30.7097 -78.4736 North 423 487 45,000  Level Jacksonville Center
05:11PM 30.8364 -78.4533 North 434 499 45,000  Level Jacksonville Center
05:12PM 30.9503 -78.4333 North 439 505 45,000  Level Jacksonville Center
05:13PM 31.0853 -78.4125 North 439 505 45,000  Level Jacksonville Center
05:14PM 31.2039 -78.3969 North 436 502 45,000  Level Jacksonville Center
05:15PM 31.3242 -78.3742 North 436 502 45,000  Level Jacksonville Center
05:16PM 31.4403 -78.3539 North 421 484 45,000  Level Jacksonville Center
05:17PM 31.5564 -78.3361 North 416 479 45,000  Level Jacksonville Center
05:18PM 31.6769 -78.3156 North 421 484 45,000  Level Jacksonville Center
05:19PM 31.7972 -78.2950 North 429 494 45,000  Level Jacksonville Center
05:20PM 31.9111 -78.2747 North 429 494 45,000  Level Jacksonville Center
05:21PM 32.0314 -78.2539 North 423 487 45,000  Level Jacksonville Center
05:22PM 32.1353 -78.2364 North 424 488 45,000  Level Jacksonville Center
05:23PM 32.2492 -78.2158 North 424 488 45,000  Level Jacksonville Center
05:24PM 32.3633 -78.1978 North 424 488 45,000  Level Jacksonville Center
05:25PM 32.4772 -78.1722 11° North 419 482 45,000  Level Jacksonville Center
05:26PM 32.5939 -78.1636 North 419 482 45,000  Level Jacksonville Center
05:27PM 32.7078 -78.1403 10° North 419 482 45,000  Level Jacksonville Center
05:28PM 32.8219 -78.1269 North 419 482 45,000  Level Jacksonville Center
05:29PM 32.9383 -78.1108 North 419 482 45,000  Level Jacksonville Center
05:30PM 33.0528 -78.1047 North 414 476 45,000  Level Jacksonville Center
05:31PM 33.1672 -78.0986 North 414 476 45,000  Level Jacksonville Center
05:32PM 33.2819 -78.0925 North 414 476 45,000  Level Jacksonville Center
05:33PM 33.3964 -78.0886 North 409 471 45,000  Level Jacksonville Center
05:34PM 33.5094 -78.0950 357° North 409 471 45,000  Level Jacksonville Center
05:35PM 33.6244 -78.1014 357° North 409 471 45,000  Level Jacksonville Center
05:36PM 33.7414 -78.1050 359° North 409 471 45,000  Level Jacksonville Center
05:37PM 33.8844 -78.1208 355° North 402 463 45,000  Level Washington Center
05:38PM 34.0014 -78.1119 North 407 468 45,000  Level Washington Center
05:39PM 34.1225 -78.1081 North 418 481 45,000  Level Washington Center
05:40PM 34.2333 -78.0939 North 418 481 45,000  Level Washington Center
05:41PM 34.3483 -78.0847 North 418 481 45,000  Level Washington Center
05:42PM 34.4611 -78.0731 North 413 475 45,000  Level Washington Center
05:43PM 34.5739 -78.0664 North 408 470 45,000  Level Washington Center
05:44PM 34.6889 -78.0597 North 408 470 45,000 -60 Level Washington Center
05:45PM 34.7997 -78.0456 North 403 464 44,900  Descending Washington Center
05:46PM 34.9211 -78.0339 North 403 464 45,000  Climbing Washington Center
05:47PM 35.0358 -78.0247 North 403 464 45,000  Level Washington Center
05:48PM 35.1258 -78.0172 North 403 464 45,000  Level Washington Center
05:49PM 35.2639 -78.0036 North 403 464 45,000  Level Washington Center
05:50PM 35.3786 -77.9969 North 408 470 45,000  Level Washington Center
05:51PM 35.4917 -77.9875 North 408 470 45,000  Level Washington Center
05:52PM 35.5964 -77.9650 10° North 408 470 45,000  Level Washington Center
05:53PM 35.7056 -77.9247 17° North 408 470 45,000  Level Washington Center
05:54PM 35.8169 -77.8844 16° North 413 475 45,000  Level Washington Center
05:55PM 35.9283 -77.8417 17° North 418 481 45,000  Level Washington Center
05:56PM 36.0378 -77.8011 17° North 418 481 45,000  Level Washington Center
05:57PM 36.1469 -77.7603 17° North 412 474 45,000  Level Washington Center
05:58PM 36.2583 -77.7197 16° North 407 468 45,000  Level Washington Center
05:59PM 36.3653 -77.6761 18° North 402 463 45,000  Level Washington Center
06:00PM 36.4725 -77.6350 17° North 402 463 45,000  Level Washington Center
06:01PM 36.5881 -77.5889 18° North 408 470 45,000  Level Washington Center
06:02PM 36.6992 -77.5453 17° North 408 470 45,000  Level Washington Center
06:03PM 36.8025 -77.4831 26° Northeast 413 475 45,000  Level Washington Center
06:04PM 36.8589 -77.3494 62° Northeast 395 455 45,000  Level Washington Center
06:05PM 36.9028 -77.1892 71° East 405 466 45,000  Level Washington Center
06:06PM 36.9483 -77.0500 68° East 412 474 45,000  Level Washington Center
06:07PM 36.9939 -76.9078 68° East 430 495 45,000  Level Washington Center
06:08PM 37.0764 -76.7997 46° Northeast 430 495 45,000  Level Washington Center
06:09PM 37.1853 -76.7389 24° Northeast 409 471 45,000  Level Washington Center
06:10PM 37.2883 -76.6647 30° Northeast 415 478 45,000  Level Washington Center
06:11PM 37.3953 -76.5956 27° Northeast 420 483 45,000  Level Washington Center
06:12PM 37.4936 -76.5497 20° North 420 483 45,000  Level Washington Center
06:13PM 37.6086 -76.5197 12° North 420 483 45,000  Level Washington Center
06:14PM 37.7233 -76.5003 North 415 478 45,000 -540 Level Washington Center
06:15PM 37.8383 -76.4728 11° North 415 478 44,000 -1,320 Descending Washington Center
06:16PM 37.9514 -76.4239 19° North 415 478 42,400 -1,740 Descending Washington Center
06:17PM 38.0642 -76.3750 19° North 420 483 40,600 -1,800 Descending Washington Center
06:18PM 38.1792 -76.3261 18° North 425 489 38,800 -1,800 Descending Washington Center
06:19PM 38.2922 -76.2769 19° North 430 495 37,100 -1,500 Descending Washington Center
06:20PM 38.4197 -76.2225 18° North 425 489 35,900 -1,380 Descending Washington Center
06:21PM 38.5347 -76.1703 20° North 430 495 34,400 -1,740 Descending Washington Center
06:22PM 38.6600 -76.1153 19° North 445 512 32,500 -1,920 Descending Washington Center
06:23PM 38.7561 -76.0069 41° Northeast 444 511 30,600 -1,980 Descending Washington Center
06:24PM 38.8317 -75.8608 56° Northeast 449 517 28,700 -2,100 Descending Washington Center
06:25PM 38.9175 -75.7358 49° Northeast 462 532 26,500 -2,280 Descending Washington Center
06:26PM 39.0342 -75.6772 21° North 437 503 24,100 -1,320 Descending Washington Center
06:27PM 39.1550 -75.6450 12° North 428 493 24,000 -60 Descending Washington Center
06:28PM 39.2633 -75.6103 14° North 434 499 24,000  Level Washington Center
06:29PM 39.3739 -75.6264 354° North 421 484 24,000 -1,020 Level Washington Center
06:30PM 39.4886 -75.6344 357° North 414 476 22,000 -3,360 Descending Washington Center
06:33PM 39.7500 -75.6000 North 385 443 13,500 -2,940 Descending Philadelphia TRACON
06:33PM 39.8333 -75.5667 17° North 386 444 13,000 -300 Descending Philadelphia TRACON
06:34PM 39.9000 -75.5000 37° Northeast 394 453 13,000  Level Philadelphia TRACON
06:35PM 40.0000 -75.4167 33° Northeast 373 429 13,000  Level Philadelphia TRACON
06:36PM 40.0833 -75.3500 31° Northeast 374 430 13,000  Level Philadelphia TRACON
06:37PM 40.1833 -75.2667 32° Northeast 383 441 13,000 -780 Level Philadelphia TRACON
06:38PM 40.2667 -75.1833 37° Northeast 313 360 11,400 -1,920 Descending Philadelphia TRACON
06:40PM 40.4000 -75.0833 30° Northeast 305 351 7,400 -1,800 Descending New York TRACON
06:41PM 40.4667 -75.0167 37° Northeast 293 337 6,000 -1,620 Descending New York TRACON
06:42PM 40.5333 -74.9667 30° Northeast 288 331 4,200 -1,020 Descending New York TRACON
06:43PM 40.6000 -74.9167 30° Northeast 279 321 4,000 -120 Descending New York TRACON
06:44PM 40.6667 -74.8667 30° Northeast 284 327 4,000 -120 Level New York TRACON
06:45PM 40.7167 -74.7833 52° Northeast 288 331 3,800 -540 Descending New York TRACON
06:46PM 40.7833 -74.7167 37° Northeast 286 329 3,000 -420 Descending New York TRACON
06:47PM 40.8333 -74.6333 52° Northeast 276 318 3,000  Level New York TRACON
06:48PM 40.8833 -74.5667 45° Northeast 274 315 3,000  Level New York TRACON
06:49PM 40.9333 -74.4833 52° Northeast 286 329 3,000  Level New York TRACON
06:50PM 40.9667 -74.3833 66° East 286 329 3,000 -540 Level New York TRACON
06:51PM 41.0000 -74.2833 66° East 292 336 2,000 -540 Descending New York TRACON
06:52PM 41.0167 -74.2000 75° East 276 318 2,000  Level New York TRACON
06:53PM 41.0333 -74.1000 78° East 288 331 2,000 -180 Level New York TRACON
06:55PM 40.9333 -74.0500 159° South 183 211 1,500 -480 Descending New York TRACON
06:56PM 40.8833 -74.0500 180° South 142 163 700 -840 Descending New York TRACON